sensor_id;sensor_type;location;lat;lon;timestamp;P1;durP1;ratioP1;P2;durP2;ratioP2
20482;SDS011;10400;53.198;6.592;2022-09-21T00:00:35;9.63;;;3.40;;
20482;SDS011;10400;53.198;6.592;2022-09-21T00:03:02;10.80;;;3.05;;
20482;SDS011;10400;53.198;6.592;2022-09-21T00:05:28;8.10;;;2.97;;
20482;SDS011;10400;53.198;6.592;2022-09-21T00:07:54;7.55;;;2.88;;
20482;SDS011;10400;53.198;6.592;2022-09-21T00:10:23;6.60;;;3.10;;
20482;SDS011;10400;53.198;6.592;2022-09-21T00:12:49;9.52;;;3.25;;
20482;SDS011;10400;53.198;6.592;2022-09-21T00:15:15;6.03;;;3.38;;
20482;SDS011;10400;53.198;6.592;2022-09-21T00:17:45;10.55;;;3.45;;
20482;SDS011;10400;53.198;6.592;2022-09-21T00:20:12;9.05;;;3.80;;
20482;SDS011;10400;53.198;6.592;2022-09-21T00:22:38;8.63;;;3.42;;
20482;SDS011;10400;53.198;6.592;2022-09-21T00:25:06;13.63;;;3.83;;
20482;SDS011;10400;53.198;6.592;2022-09-21T00:27:32;8.82;;;3.33;;
20482;SDS011;10400;53.198;6.592;2022-09-21T00:29:58;8.13;;;3.60;;
20482;SDS011;10400;53.198;6.592;2022-09-21T00:32:27;8.07;;;3.78;;
20482;SDS011;10400;53.198;6.592;2022-09-21T00:34:55;10.65;;;4.00;;
20482;SDS011;10400;53.198;6.592;2022-09-21T00:37:22;7.60;;;3.90;;
20482;SDS011;10400;53.198;6.592;2022-09-21T00:39:48;5.82;;;3.70;;
20482;SDS011;10400;53.198;6.592;2022-09-21T00:42:15;6.28;;;3.53;;
20482;SDS011;10400;53.198;6.592;2022-09-21T00:44:50;8.27;;;3.80;;
20482;SDS011;10400;53.198;6.592;2022-09-21T00:47:16;9.15;;;4.18;;
20482;SDS011;10400;53.198;6.592;2022-09-21T00:49:47;7.88;;;4.18;;
20482;SDS011;10400;53.198;6.592;2022-09-21T00:52:18;9.82;;;3.80;;
20482;SDS011;10400;53.198;6.592;2022-09-21T00:54:46;10.32;;;4.28;;
20482;SDS011;10400;53.198;6.592;2022-09-21T00:57:16;6.35;;;4.03;;
20482;SDS011;10400;53.198;6.592;2022-09-21T00:59:46;6.53;;;4.30;;
20482;SDS011;10400;53.198;6.592;2022-09-21T01:02:15;8.75;;;4.53;;
20482;SDS011;10400;53.198;6.592;2022-09-21T01:04:42;9.45;;;4.75;;
20482;SDS011;10400;53.198;6.592;2022-09-21T01:07:10;7.38;;;4.28;;
20482;SDS011;10400;53.198;6.592;2022-09-21T01:09:42;10.52;;;4.65;;
20482;SDS011;10400;53.198;6.592;2022-09-21T01:17:18;7.90;;;4.45;;
20482;SDS011;10400;53.198;6.592;2022-09-21T01:28:10;8.43;;;4.88;;
20482;SDS011;10400;53.198;6.592;2022-09-21T01:31:04;9.00;;;4.63;;
20482;SDS011;10400;53.198;6.592;2022-09-21T01:33:37;6.47;;;3.90;;
20482;SDS011;10400;53.198;6.592;2022-09-21T01:36:10;9.35;;;4.03;;
20482;SDS011;10400;53.198;6.592;2022-09-21T01:38:41;10.95;;;4.35;;
20482;SDS011;10400;53.198;6.592;2022-09-21T01:41:14;6.90;;;4.10;;
20482;SDS011;10400;53.198;6.592;2022-09-21T01:43:47;8.65;;;3.90;;
20482;SDS011;10400;53.198;6.592;2022-09-21T01:46:20;6.28;;;3.70;;
20482;SDS011;10400;53.198;6.592;2022-09-21T01:48:51;8.02;;;4.05;;
20482;SDS011;10400;53.198;6.592;2022-09-21T01:51:24;7.35;;;4.07;;
20482;SDS011;10400;53.198;6.592;2022-09-21T01:53:57;8.10;;;4.30;;
20482;SDS011;10400;53.198;6.592;2022-09-21T01:56:34;6.13;;;3.80;;
20482;SDS011;10400;53.198;6.592;2022-09-21T01:59:21;9.60;;;4.15;;
20482;SDS011;10400;53.198;6.592;2022-09-21T02:01:56;8.77;;;4.00;;
20482;SDS011;10400;53.198;6.592;2022-09-21T02:04:25;10.77;;;4.50;;
20482;SDS011;10400;53.198;6.592;2022-09-21T02:06:51;5.68;;;3.78;;
20482;SDS011;10400;53.198;6.592;2022-09-21T02:09:17;6.40;;;3.33;;
20482;SDS011;10400;53.198;6.592;2022-09-21T02:11:44;5.90;;;3.50;;
20482;SDS011;10400;53.198;6.592;2022-09-21T02:14:18;9.55;;;3.95;;
20482;SDS011;10400;53.198;6.592;2022-09-21T02:16:48;8.43;;;3.80;;
20482;SDS011;10400;53.198;6.592;2022-09-21T02:19:37;6.50;;;3.40;;
20482;SDS011;10400;53.198;6.592;2022-09-21T02:22:43;4.68;;;3.25;;
20482;SDS011;10400;53.198;6.592;2022-09-21T02:25:29;7.70;;;3.72;;
20482;SDS011;10400;53.198;6.592;2022-09-21T02:31:20;5.53;;;3.42;;
20482;SDS011;10400;53.198;6.592;2022-09-21T02:34:03;5.57;;;3.45;;
20482;SDS011;10400;53.198;6.592;2022-09-21T02:39:11;5.07;;;3.67;;
20482;SDS011;10400;53.198;6.592;2022-09-21T02:42:15;8.43;;;3.97;;
20482;SDS011;10400;53.198;6.592;2022-09-21T02:44:51;7.65;;;3.90;;
20482;SDS011;10400;53.198;6.592;2022-09-21T02:47:45;5.50;;;3.70;;
20482;SDS011;10400;53.198;6.592;2022-09-21T02:50:23;5.95;;;3.67;;
20482;SDS011;10400;53.198;6.592;2022-09-21T02:52:53;7.95;;;3.53;;
20482;SDS011;10400;53.198;6.592;2022-09-21T02:55:19;11.60;;;4.03;;
20482;SDS011;10400;53.198;6.592;2022-09-21T02:57:46;5.10;;;3.53;;
20482;SDS011;10400;53.198;6.592;2022-09-21T03:00:13;8.88;;;3.17;;
20482;SDS011;10400;53.198;6.592;2022-09-21T03:02:42;8.95;;;4.00;;
20482;SDS011;10400;53.198;6.592;2022-09-21T03:05:09;6.20;;;3.65;;
20482;SDS011;10400;53.198;6.592;2022-09-21T03:07:36;6.43;;;3.45;;
20482;SDS011;10400;53.198;6.592;2022-09-21T03:10:03;8.48;;;4.10;;
20482;SDS011;10400;53.198;6.592;2022-09-21T03:12:29;9.02;;;3.80;;
20482;SDS011;10400;53.198;6.592;2022-09-21T03:14:56;6.68;;;3.30;;
20482;SDS011;10400;53.198;6.592;2022-09-21T03:17:22;8.82;;;3.50;;
20482;SDS011;10400;53.198;6.592;2022-09-21T03:19:47;7.88;;;4.07;;
20482;SDS011;10400;53.198;6.592;2022-09-21T03:22:13;6.75;;;3.40;;
20482;SDS011;10400;53.198;6.592;2022-09-21T03:24:41;7.60;;;3.65;;
20482;SDS011;10400;53.198;6.592;2022-09-21T03:27:09;9.82;;;3.78;;
20482;SDS011;10400;53.198;6.592;2022-09-21T03:29:35;7.53;;;3.53;;
20482;SDS011;10400;53.198;6.592;2022-09-21T03:32:00;10.63;;;3.67;;
20482;SDS011;10400;53.198;6.592;2022-09-21T03:34:26;8.85;;;3.45;;
20482;SDS011;10400;53.198;6.592;2022-09-21T03:36:52;9.43;;;3.67;;
20482;SDS011;10400;53.198;6.592;2022-09-21T03:39:18;10.00;;;3.53;;
20482;SDS011;10400;53.198;6.592;2022-09-21T03:41:44;10.57;;;4.05;;
20482;SDS011;10400;53.198;6.592;2022-09-21T03:44:09;7.50;;;3.55;;
20482;SDS011;10400;53.198;6.592;2022-09-21T03:46:35;7.00;;;3.47;;
20482;SDS011;10400;53.198;6.592;2022-09-21T03:49:00;6.35;;;3.17;;
20482;SDS011;10400;53.198;6.592;2022-09-21T03:51:27;5.75;;;2.83;;
20482;SDS011;10400;53.198;6.592;2022-09-21T03:53:55;8.55;;;3.72;;
20482;SDS011;10400;53.198;6.592;2022-09-21T03:56:21;5.55;;;3.10;;
20482;SDS011;10400;53.198;6.592;2022-09-21T03:58:47;8.30;;;3.40;;
20482;SDS011;10400;53.198;6.592;2022-09-21T04:01:13;6.82;;;3.28;;
20482;SDS011;10400;53.198;6.592;2022-09-21T04:03:38;8.00;;;3.70;;
20482;SDS011;10400;53.198;6.592;2022-09-21T04:06:11;9.02;;;3.85;;
20482;SDS011;10400;53.198;6.592;2022-09-21T04:08:37;7.13;;;3.40;;
20482;SDS011;10400;53.198;6.592;2022-09-21T04:11:15;5.00;;;3.22;;
20482;SDS011;10400;53.198;6.592;2022-09-21T04:13:42;4.88;;;2.90;;
20482;SDS011;10400;53.198;6.592;2022-09-21T04:16:09;8.77;;;2.92;;
20482;SDS011;10400;53.198;6.592;2022-09-21T04:18:35;5.10;;;3.05;;
20482;SDS011;10400;53.198;6.592;2022-09-21T04:21:05;5.35;;;2.97;;
20482;SDS011;10400;53.198;6.592;2022-09-21T04:23:30;5.30;;;3.10;;
20482;SDS011;10400;53.198;6.592;2022-09-21T04:25:56;7.13;;;3.22;;
20482;SDS011;10400;53.198;6.592;2022-09-21T04:28:22;4.72;;;3.13;;
20482;SDS011;10400;53.198;6.592;2022-09-21T04:30:51;6.40;;;3.60;;
20482;SDS011;10400;53.198;6.592;2022-09-21T04:33:18;3.90;;;2.97;;
20482;SDS011;10400;53.198;6.592;2022-09-21T04:35:44;8.10;;;3.13;;
20482;SDS011;10400;53.198;6.592;2022-09-21T04:38:10;6.65;;;3.00;;
20482;SDS011;10400;53.198;6.592;2022-09-21T04:40:37;6.13;;;2.78;;
20482;SDS011;10400;53.198;6.592;2022-09-21T04:43:03;4.78;;;2.80;;
20482;SDS011;10400;53.198;6.592;2022-09-21T04:45:29;8.00;;;3.20;;
20482;SDS011;10400;53.198;6.592;2022-09-21T04:47:56;6.97;;;3.20;;
20482;SDS011;10400;53.198;6.592;2022-09-21T04:50:21;5.35;;;3.20;;
20482;SDS011;10400;53.198;6.592;2022-09-21T04:52:47;7.15;;;2.95;;
20482;SDS011;10400;53.198;6.592;2022-09-21T04:55:13;6.95;;;2.80;;
20482;SDS011;10400;53.198;6.592;2022-09-21T04:57:39;8.30;;;3.45;;
20482;SDS011;10400;53.198;6.592;2022-09-21T05:00:04;5.78;;;2.78;;
20482;SDS011;10400;53.198;6.592;2022-09-21T05:02:30;5.07;;;3.08;;
20482;SDS011;10400;53.198;6.592;2022-09-21T05:04:56;7.88;;;3.22;;
20482;SDS011;10400;53.198;6.592;2022-09-21T05:07:22;11.27;;;2.72;;
20482;SDS011;10400;53.198;6.592;2022-09-21T05:09:47;13.43;;;4.05;;
20482;SDS011;10400;53.198;6.592;2022-09-21T05:12:28;5.47;;;3.17;;
20482;SDS011;10400;53.198;6.592;2022-09-21T05:14:55;5.65;;;2.80;;
20482;SDS011;10400;53.198;6.592;2022-09-21T05:17:21;9.10;;;3.13;;
20482;SDS011;10400;53.198;6.592;2022-09-21T05:19:48;9.35;;;3.50;;
20482;SDS011;10400;53.198;6.592;2022-09-21T05:22:15;5.82;;;3.38;;
20482;SDS011;10400;53.198;6.592;2022-09-21T05:24:40;8.07;;;2.95;;
20482;SDS011;10400;53.198;6.592;2022-09-21T05:27:06;5.75;;;3.40;;
20482;SDS011;10400;53.198;6.592;2022-09-21T05:29:32;8.70;;;2.75;;
20482;SDS011;10400;53.198;6.592;2022-09-21T05:37:56;8.80;;;3.40;;
20482;SDS011;10400;53.198;6.592;2022-09-21T05:40:28;4.97;;;3.00;;
20482;SDS011;10400;53.198;6.592;2022-09-21T05:42:54;6.75;;;3.45;;
20482;SDS011;10400;53.198;6.592;2022-09-21T05:45:20;6.50;;;3.47;;
20482;SDS011;10400;53.198;6.592;2022-09-21T05:55:59;5.75;;;3.33;;
20482;SDS011;10400;53.198;6.592;2022-09-21T06:04:07;7.10;;;3.20;;
20482;SDS011;10400;53.198;6.592;2022-09-21T06:06:35;7.88;;;3.63;;
20482;SDS011;10400;53.198;6.592;2022-09-21T06:09:01;5.78;;;3.35;;
20482;SDS011;10400;53.198;6.592;2022-09-21T06:11:27;6.57;;;3.60;;
20482;SDS011;10400;53.198;6.592;2022-09-21T06:13:52;4.85;;;3.55;;
20482;SDS011;10400;53.198;6.592;2022-09-21T06:16:18;5.65;;;3.40;;
20482;SDS011;10400;53.198;6.592;2022-09-21T06:18:44;4.63;;;3.63;;
20482;SDS011;10400;53.198;6.592;2022-09-21T06:21:10;8.27;;;3.70;;
20482;SDS011;10400;53.198;6.592;2022-09-21T06:23:36;4.72;;;3.20;;
20482;SDS011;10400;53.198;6.592;2022-09-21T06:26:02;7.20;;;2.95;;
20482;SDS011;10400;53.198;6.592;2022-09-21T06:28:28;5.95;;;2.92;;
20482;SDS011;10400;53.198;6.592;2022-09-21T06:30:54;7.60;;;3.38;;
20482;SDS011;10400;53.198;6.592;2022-09-21T06:33:21;4.18;;;2.90;;
20482;SDS011;10400;53.198;6.592;2022-09-21T06:35:50;5.97;;;3.35;;
20482;SDS011;10400;53.198;6.592;2022-09-21T06:38:16;6.43;;;3.42;;
20482;SDS011;10400;53.198;6.592;2022-09-21T06:40:42;5.72;;;3.03;;
20482;SDS011;10400;53.198;6.592;2022-09-21T06:43:07;7.15;;;3.40;;
20482;SDS011;10400;53.198;6.592;2022-09-21T06:45:33;6.80;;;3.53;;
20482;SDS011;10400;53.198;6.592;2022-09-21T06:47:58;7.53;;;3.63;;
20482;SDS011;10400;53.198;6.592;2022-09-21T06:50:24;9.15;;;3.22;;
20482;SDS011;10400;53.198;6.592;2022-09-21T06:52:50;6.68;;;3.75;;
20482;SDS011;10400;53.198;6.592;2022-09-21T06:55:15;8.95;;;3.40;;
20482;SDS011;10400;53.198;6.592;2022-09-21T06:57:41;7.65;;;3.70;;
20482;SDS011;10400;53.198;6.592;2022-09-21T07:00:09;10.65;;;3.85;;
20482;SDS011;10400;53.198;6.592;2022-09-21T07:02:36;6.88;;;3.22;;
20482;SDS011;10400;53.198;6.592;2022-09-21T07:05:02;10.65;;;3.28;;
20482;SDS011;10400;53.198;6.592;2022-09-21T07:07:28;8.68;;;2.97;;
20482;SDS011;10400;53.198;6.592;2022-09-21T07:09:55;8.60;;;3.40;;
20482;SDS011;10400;53.198;6.592;2022-09-21T07:12:23;6.70;;;3.10;;
20482;SDS011;10400;53.198;6.592;2022-09-21T07:14:50;8.85;;;3.55;;
20482;SDS011;10400;53.198;6.592;2022-09-21T07:17:16;12.75;;;3.35;;
20482;SDS011;10400;53.198;6.592;2022-09-21T07:19:41;50.97;;;5.00;;
20482;SDS011;10400;53.198;6.592;2022-09-21T07:22:07;39.15;;;5.32;;
20482;SDS011;10400;53.198;6.592;2022-09-21T07:24:33;22.27;;;3.88;;
20482;SDS011;10400;53.198;6.592;2022-09-21T07:26:58;15.68;;;3.38;;
20482;SDS011;10400;53.198;6.592;2022-09-21T07:29:24;5.90;;;2.45;;
20482;SDS011;10400;53.198;6.592;2022-09-21T07:31:49;3.63;;;2.03;;
20482;SDS011;10400;53.198;6.592;2022-09-21T07:34:15;10.52;;;2.58;;
20482;SDS011;10400;53.198;6.592;2022-09-21T07:36:41;7.53;;;2.60;;
20482;SDS011;10400;53.198;6.592;2022-09-21T07:39:09;11.02;;;2.50;;
20482;SDS011;10400;53.198;6.592;2022-09-21T07:41:36;14.00;;;2.63;;
20482;SDS011;10400;53.198;6.592;2022-09-21T07:44:02;8.75;;;2.30;;
20482;SDS011;10400;53.198;6.592;2022-09-21T07:46:27;8.13;;;2.50;;
20482;SDS011;10400;53.198;6.592;2022-09-21T07:48:53;5.30;;;2.17;;
20482;SDS011;10400;53.198;6.592;2022-09-21T07:51:20;6.65;;;2.13;;
20482;SDS011;10400;53.198;6.592;2022-09-21T07:53:45;8.07;;;1.85;;
20482;SDS011;10400;53.198;6.592;2022-09-21T07:56:13;7.30;;;2.60;;
20482;SDS011;10400;53.198;6.592;2022-09-21T07:58:40;6.63;;;1.90;;
20482;SDS011;10400;53.198;6.592;2022-09-21T08:01:25;10.82;;;1.95;;
20482;SDS011;10400;53.198;6.592;2022-09-21T08:03:53;5.65;;;1.98;;
20482;SDS011;10400;53.198;6.592;2022-09-21T08:06:20;6.63;;;1.98;;
20482;SDS011;10400;53.198;6.592;2022-09-21T08:08:47;12.18;;;1.90;;
20482;SDS011;10400;53.198;6.592;2022-09-21T08:11:14;48.15;;;6.38;;
20482;SDS011;10400;53.198;6.592;2022-09-21T08:13:41;15.75;;;1.83;;
20482;SDS011;10400;53.198;6.592;2022-09-21T08:16:07;5.88;;;1.40;;
20482;SDS011;10400;53.198;6.592;2022-09-21T08:18:36;16.58;;;1.58;;
20482;SDS011;10400;53.198;6.592;2022-09-21T08:21:03;5.90;;;1.42;;
20482;SDS011;10400;53.198;6.592;2022-09-21T08:23:45;6.50;;;1.17;;
20482;SDS011;10400;53.198;6.592;2022-09-21T08:26:14;6.78;;;1.63;;
20482;SDS011;10400;53.198;6.592;2022-09-21T08:28:45;13.30;;;1.38;;
20482;SDS011;10400;53.198;6.592;2022-09-21T08:31:16;10.82;;;1.30;;
20482;SDS011;10400;53.198;6.592;2022-09-21T08:33:43;13.75;;;1.70;;
20482;SDS011;10400;53.198;6.592;2022-09-21T08:36:09;9.52;;;1.00;;
20482;SDS011;10400;53.198;6.592;2022-09-21T08:38:35;8.50;;;1.63;;
20482;SDS011;10400;53.198;6.592;2022-09-21T08:41:09;7.97;;;1.38;;
20482;SDS011;10400;53.198;6.592;2022-09-21T08:43:44;13.50;;;1.45;;
20482;SDS011;10400;53.198;6.592;2022-09-21T08:46:15;7.57;;;1.63;;
20482;SDS011;10400;53.198;6.592;2022-09-21T08:48:54;14.07;;;1.73;;
20482;SDS011;10400;53.198;6.592;2022-09-21T08:51:29;6.65;;;1.10;;
20482;SDS011;10400;53.198;6.592;2022-09-21T08:53:59;9.18;;;1.27;;
20482;SDS011;10400;53.198;6.592;2022-09-21T08:56:31;4.65;;;0.90;;
20482;SDS011;10400;53.198;6.592;2022-09-21T08:58:58;6.35;;;1.10;;
20482;SDS011;10400;53.198;6.592;2022-09-21T09:01:32;6.65;;;1.73;;
20482;SDS011;10400;53.198;6.592;2022-09-21T09:21:47;6.68;;;1.15;;
20482;SDS011;10400;53.198;6.592;2022-09-21T09:27:08;5.50;;;0.95;;
20482;SDS011;10400;53.198;6.592;2022-09-21T09:30:02;9.32;;;1.17;;
20482;SDS011;10400;53.198;6.592;2022-09-21T09:32:41;5.22;;;0.90;;
20482;SDS011;10400;53.198;6.592;2022-09-21T09:35:23;5.18;;;1.08;;
20482;SDS011;10400;53.198;6.592;2022-09-21T09:37:52;6.18;;;1.00;;
20482;SDS011;10400;53.198;6.592;2022-09-21T09:44:07;6.53;;;1.08;;
20482;SDS011;10400;53.198;6.592;2022-09-21T09:46:09;5.88;;;1.30;;
20482;SDS011;10400;53.198;6.592;2022-09-21T09:51:10;8.38;;;1.10;;
20482;SDS011;10400;53.198;6.592;2022-09-21T09:53:37;4.10;;;1.52;;
20482;SDS011;10400;53.198;6.592;2022-09-21T09:56:03;7.05;;;0.90;;
20482;SDS011;10400;53.198;6.592;2022-09-21T10:01:07;5.00;;;1.00;;
20482;SDS011;10400;53.198;6.592;2022-09-21T10:03:33;4.95;;;1.08;;
20482;SDS011;10400;53.198;6.592;2022-09-21T10:06:00;7.05;;;1.10;;
20482;SDS011;10400;53.198;6.592;2022-09-21T10:08:39;6.28;;;1.15;;
20482;SDS011;10400;53.198;6.592;2022-09-21T10:11:07;8.75;;;1.80;;
20482;SDS011;10400;53.198;6.592;2022-09-21T10:13:36;7.18;;;1.10;;
20482;SDS011;10400;53.198;6.592;2022-09-21T10:16:14;5.88;;;1.08;;
20482;SDS011;10400;53.198;6.592;2022-09-21T10:18:47;11.20;;;1.10;;
20482;SDS011;10400;53.198;6.592;2022-09-21T10:23:50;6.22;;;1.30;;
20482;SDS011;10400;53.198;6.592;2022-09-21T10:26:20;6.60;;;1.02;;
20482;SDS011;10400;53.198;6.592;2022-09-21T10:28:56;9.38;;;1.35;;
20482;SDS011;10400;53.198;6.592;2022-09-21T10:35:18;3.70;;;0.88;;
20482;SDS011;10400;53.198;6.592;2022-09-21T10:37:44;3.20;;;0.77;;
20482;SDS011;10400;53.198;6.592;2022-09-21T10:40:21;4.10;;;1.10;;
20482;SDS011;10400;53.198;6.592;2022-09-21T10:42:49;5.00;;;0.82;;
20482;SDS011;10400;53.198;6.592;2022-09-21T10:45:19;6.07;;;0.90;;
20482;SDS011;10400;53.198;6.592;2022-09-21T10:52:57;5.15;;;0.65;;
20482;SDS011;10400;53.198;6.592;2022-09-21T10:55:26;4.93;;;1.10;;
20482;SDS011;10400;53.198;6.592;2022-09-21T10:57:53;5.22;;;1.08;;
20482;SDS011;10400;53.198;6.592;2022-09-21T11:02:48;5.70;;;0.73;;
20482;SDS011;10400;53.198;6.592;2022-09-21T11:10:50;5.03;;;0.98;;
20482;SDS011;10400;53.198;6.592;2022-09-21T11:16:20;2.35;;;0.63;;
20482;SDS011;10400;53.198;6.592;2022-09-21T11:18:54;4.85;;;0.75;;
20482;SDS011;10400;53.198;6.592;2022-09-21T11:26:49;2.83;;;0.90;;
20482;SDS011;10400;53.198;6.592;2022-09-21T11:54:49;2.25;;;0.60;;
20482;SDS011;10400;53.198;6.592;2022-09-21T11:57:44;7.13;;;0.88;;
20482;SDS011;10400;53.198;6.592;2022-09-21T12:00:19;3.70;;;0.98;;
20482;SDS011;10400;53.198;6.592;2022-09-21T12:20:30;4.90;;;0.80;;
20482;SDS011;10400;53.198;6.592;2022-09-21T12:22:25;6.55;;;1.05;;
20482;SDS011;10400;53.198;6.592;2022-09-21T12:25:14;2.20;;;0.73;;
20482;SDS011;10400;53.198;6.592;2022-09-21T12:27:52;3.00;;;0.80;;
20482;SDS011;10400;53.198;6.592;2022-09-21T12:30:30;3.15;;;0.80;;
20482;SDS011;10400;53.198;6.592;2022-09-21T12:33:00;9.50;;;0.85;;
20482;SDS011;10400;53.198;6.592;2022-09-21T12:43:25;13.80;;;1.80;;
20482;SDS011;10400;53.198;6.592;2022-09-21T12:46:12;5.40;;;0.95;;
20482;SDS011;10400;53.198;6.592;2022-09-21T12:48:54;1.73;;;0.63;;
20482;SDS011;10400;53.198;6.592;2022-09-21T12:51:30;4.55;;;0.70;;
20482;SDS011;10400;53.198;6.592;2022-09-21T12:54:14;7.53;;;0.85;;
20482;SDS011;10400;53.198;6.592;2022-09-21T12:56:43;7.57;;;0.70;;
20482;SDS011;10400;53.198;6.592;2022-09-21T13:13:17;4.32;;;1.00;;
20482;SDS011;10400;53.198;6.592;2022-09-21T13:15:44;6.65;;;0.90;;
20482;SDS011;10400;53.198;6.592;2022-09-21T13:18:16;5.80;;;0.80;;
20482;SDS011;10400;53.198;6.592;2022-09-21T13:20:56;3.70;;;0.65;;
20482;SDS011;10400;53.198;6.592;2022-09-21T13:23:26;3.78;;;0.65;;
20482;SDS011;10400;53.198;6.592;2022-09-21T13:26:06;5.20;;;0.73;;
20482;SDS011;10400;53.198;6.592;2022-09-21T13:31:28;6.82;;;0.82;;
20482;SDS011;10400;53.198;6.592;2022-09-21T13:47:43;3.45;;;0.85;;
20482;SDS011;10400;53.198;6.592;2022-09-21T13:50:12;5.40;;;0.80;;
20482;SDS011;10400;53.198;6.592;2022-09-21T13:52:48;3.42;;;0.73;;
20482;SDS011;10400;53.198;6.592;2022-09-21T13:55:29;3.70;;;0.80;;
20482;SDS011;10400;53.198;6.592;2022-09-21T13:57:59;2.90;;;0.55;;
20482;SDS011;10400;53.198;6.592;2022-09-21T14:03:38;4.15;;;0.80;;
20482;SDS011;10400;53.198;6.592;2022-09-21T14:06:08;3.15;;;0.55;;
20482;SDS011;10400;53.198;6.592;2022-09-21T14:09:00;3.67;;;0.70;;
20482;SDS011;10400;53.198;6.592;2022-09-21T14:14:01;4.25;;;0.70;;
20482;SDS011;10400;53.198;6.592;2022-09-21T14:19:01;5.90;;;0.95;;
20482;SDS011;10400;53.198;6.592;2022-09-21T14:21:29;2.80;;;0.60;;
20482;SDS011;10400;53.198;6.592;2022-09-21T14:26:49;5.47;;;0.90;;
20482;SDS011;10400;53.198;6.592;2022-09-21T14:31:48;6.68;;;0.90;;
20482;SDS011;10400;53.198;6.592;2022-09-21T14:34:19;4.38;;;0.80;;
20482;SDS011;10400;53.198;6.592;2022-09-21T14:36:49;2.50;;;0.90;;
20482;SDS011;10400;53.198;6.592;2022-09-21T14:39:18;6.15;;;0.93;;
20482;SDS011;10400;53.198;6.592;2022-09-21T14:41:56;2.33;;;0.77;;
20482;SDS011;10400;53.198;6.592;2022-09-21T14:44:36;4.53;;;0.88;;
20482;SDS011;10400;53.198;6.592;2022-09-21T14:47:22;4.55;;;0.88;;
20482;SDS011;10400;53.198;6.592;2022-09-21T14:52:52;3.97;;;0.88;;
20482;SDS011;10400;53.198;6.592;2022-09-21T15:10:49;4.30;;;1.08;;
20482;SDS011;10400;53.198;6.592;2022-09-21T15:13:09;4.50;;;1.10;;
20482;SDS011;10400;53.198;6.592;2022-09-21T15:16:08;3.78;;;1.02;;
20482;SDS011;10400;53.198;6.592;2022-09-21T15:18:44;6.15;;;0.80;;
20482;SDS011;10400;53.198;6.592;2022-09-21T15:21:27;5.63;;;1.10;;
20482;SDS011;10400;53.198;6.592;2022-09-21T15:23:54;5.68;;;1.10;;
20482;SDS011;10400;53.198;6.592;2022-09-21T15:26:24;2.47;;;0.95;;
20482;SDS011;10400;53.198;6.592;2022-09-21T15:28:58;6.15;;;1.30;;
20482;SDS011;10400;53.198;6.592;2022-09-21T15:31:36;7.43;;;1.05;;
20482;SDS011;10400;53.198;6.592;2022-09-21T15:34:04;7.65;;;0.93;;
20482;SDS011;10400;53.198;6.592;2022-09-21T15:36:31;5.68;;;1.00;;
20482;SDS011;10400;53.198;6.592;2022-09-21T15:38:59;12.98;;;1.23;;
20482;SDS011;10400;53.198;6.592;2022-09-21T15:41:41;5.97;;;1.15;;
20482;SDS011;10400;53.198;6.592;2022-09-21T15:44:15;5.07;;;0.82;;
20482;SDS011;10400;53.198;6.592;2022-09-21T15:46:45;4.18;;;1.08;;
20482;SDS011;10400;53.198;6.592;2022-09-21T15:49:14;8.35;;;1.45;;
20482;SDS011;10400;53.198;6.592;2022-09-21T15:51:45;5.78;;;0.70;;
20482;SDS011;10400;53.198;6.592;2022-09-21T15:56:56;5.60;;;1.20;;
20482;SDS011;10400;53.198;6.592;2022-09-21T15:59:27;11.48;;;1.08;;
20482;SDS011;10400;53.198;6.592;2022-09-21T16:01:54;8.32;;;1.35;;
20482;SDS011;10400;53.198;6.592;2022-09-21T16:04:23;4.55;;;0.90;;
20482;SDS011;10400;53.198;6.592;2022-09-21T16:07:06;5.25;;;1.10;;
20482;SDS011;10400;53.198;6.592;2022-09-21T16:09:49;3.08;;;0.80;;
20482;SDS011;10400;53.198;6.592;2022-09-21T16:14:50;5.60;;;1.15;;
20482;SDS011;10400;53.198;6.592;2022-09-21T16:17:24;6.30;;;0.98;;
20482;SDS011;10400;53.198;6.592;2022-09-21T16:22:28;3.53;;;0.90;;
20482;SDS011;10400;53.198;6.592;2022-09-21T16:24:55;4.63;;;1.00;;
20482;SDS011;10400;53.198;6.592;2022-09-21T16:27:22;5.45;;;0.98;;
20482;SDS011;10400;53.198;6.592;2022-09-21T16:29:51;6.53;;;1.05;;
20482;SDS011;10400;53.198;6.592;2022-09-21T16:34:50;5.38;;;1.05;;
20482;SDS011;10400;53.198;6.592;2022-09-21T16:39:52;1.85;;;1.02;;
20482;SDS011;10400;53.198;6.592;2022-09-21T16:42:27;5.50;;;0.93;;
20482;SDS011;10400;53.198;6.592;2022-09-21T16:44:56;4.68;;;1.02;;
20482;SDS011;10400;53.198;6.592;2022-09-21T16:47:24;5.20;;;0.80;;
20482;SDS011;10400;53.198;6.592;2022-09-21T16:49:51;5.10;;;1.23;;
20482;SDS011;10400;53.198;6.592;2022-09-21T16:52:24;4.05;;;1.00;;
20482;SDS011;10400;53.198;6.592;2022-09-21T16:54:52;4.22;;;1.40;;
20482;SDS011;10400;53.198;6.592;2022-09-21T16:57:18;5.38;;;1.10;;
20482;SDS011;10400;53.198;6.592;2022-09-21T16:59:44;4.75;;;1.08;;
20482;SDS011;10400;53.198;6.592;2022-09-21T17:02:10;5.57;;;0.90;;
20482;SDS011;10400;53.198;6.592;2022-09-21T17:04:38;3.05;;;0.68;;
20482;SDS011;10400;53.198;6.592;2022-09-21T17:07:04;4.50;;;0.70;;
20482;SDS011;10400;53.198;6.592;2022-09-21T17:12:03;7.68;;;1.23;;
20482;SDS011;10400;53.198;6.592;2022-09-21T17:14:32;2.53;;;0.80;;
20482;SDS011;10400;53.198;6.592;2022-09-21T17:19:41;5.90;;;1.05;;
20482;SDS011;10400;53.198;6.592;2022-09-21T17:22:10;6.80;;;1.20;;
20482;SDS011;10400;53.198;6.592;2022-09-21T17:24:41;5.70;;;0.80;;
20482;SDS011;10400;53.198;6.592;2022-09-21T17:27:16;4.90;;;0.70;;
20482;SDS011;10400;53.198;6.592;2022-09-21T17:29:44;6.00;;;0.80;;
20482;SDS011;10400;53.198;6.592;2022-09-21T17:32:11;4.65;;;0.80;;
20482;SDS011;10400;53.198;6.592;2022-09-21T17:34:44;6.97;;;1.10;;
20482;SDS011;10400;53.198;6.592;2022-09-21T17:37:10;7.05;;;1.17;;
20482;SDS011;10400;53.198;6.592;2022-09-21T17:39:36;6.03;;;1.05;;
20482;SDS011;10400;53.198;6.592;2022-09-21T17:42:02;5.07;;;1.27;;
20482;SDS011;10400;53.198;6.592;2022-09-21T17:44:59;6.85;;;1.13;;
20482;SDS011;10400;53.198;6.592;2022-09-21T17:47:27;8.13;;;1.20;;
20482;SDS011;10400;53.198;6.592;2022-09-21T17:50:00;5.80;;;1.05;;
20482;SDS011;10400;53.198;6.592;2022-09-21T17:52:47;4.65;;;1.10;;
20482;SDS011;10400;53.198;6.592;2022-09-21T17:55:32;3.38;;;1.17;;
20482;SDS011;10400;53.198;6.592;2022-09-21T18:03:29;4.07;;;1.25;;
20482;SDS011;10400;53.198;6.592;2022-09-21T18:05:59;7.18;;;1.23;;
20482;SDS011;10400;53.198;6.592;2022-09-21T18:08:29;5.28;;;1.52;;
20482;SDS011;10400;53.198;6.592;2022-09-21T18:21:42;4.15;;;1.65;;
20482;SDS011;10400;53.198;6.592;2022-09-21T18:24:19;6.72;;;2.47;;
20482;SDS011;10400;53.198;6.592;2022-09-21T18:26:49;4.38;;;1.77;;
20482;SDS011;10400;53.198;6.592;2022-09-21T18:29:23;8.57;;;2.00;;
20482;SDS011;10400;53.198;6.592;2022-09-21T18:40:35;4.55;;;1.35;;
20482;SDS011;10400;53.198;6.592;2022-09-21T18:43:17;9.27;;;1.73;;
20482;SDS011;10400;53.198;6.592;2022-09-21T18:45:54;5.80;;;1.63;;
20482;SDS011;10400;53.198;6.592;2022-09-21T18:48:33;7.55;;;1.88;;
20482;SDS011;10400;53.198;6.592;2022-09-21T18:53:48;7.28;;;1.83;;
20482;SDS011;10400;53.198;6.592;2022-09-21T18:56:20;5.15;;;1.90;;
20482;SDS011;10400;53.198;6.592;2022-09-21T18:58:47;7.65;;;1.92;;
20482;SDS011;10400;53.198;6.592;2022-09-21T19:01:16;5.95;;;1.40;;
20482;SDS011;10400;53.198;6.592;2022-09-21T19:03:44;6.65;;;1.40;;
20482;SDS011;10400;53.198;6.592;2022-09-21T19:11:56;9.00;;;1.70;;
20482;SDS011;10400;53.198;6.592;2022-09-21T19:23:14;4.95;;;2.47;;
20482;SDS011;10400;53.198;6.592;2022-09-21T19:26:12;6.18;;;2.42;;
20482;SDS011;10400;53.198;6.592;2022-09-21T19:31:47;7.63;;;2.58;;
20482;SDS011;10400;53.198;6.592;2022-09-21T19:34:17;5.63;;;2.40;;
20482;SDS011;10400;53.198;6.592;2022-09-21T19:36:43;7.38;;;2.65;;